createdAt,value
2018-06-28T00:01:32.774Z,101843.14
2018-06-28T00:04:01.404Z,101852.45
2018-06-28T00:06:30.020Z,101843.41
2018-06-28T00:08:58.731Z,101844.57
2018-06-28T00:11:27.333Z,101850.02
2018-06-28T00:13:55.986Z,101845.05
2018-06-28T00:16:24.708Z,101848.37
2018-06-28T00:18:53.353Z,101850.92
2018-06-28T00:21:21.921Z,101851.80
2018-06-28T00:23:50.499Z,101857.83
2018-06-28T00:26:19.189Z,101849.88
2018-06-28T00:28:47.725Z,101855.55
2018-06-28T00:31:16.301Z,101852.12
2018-06-28T00:33:45.212Z,101849.03
2018-06-28T00:36:13.837Z,101859.70
2018-06-28T00:38:42.387Z,101853.22
2018-06-28T00:41:11.056Z,101851.02
2018-06-28T00:43:39.686Z,101852.78
2018-06-28T00:46:08.541Z,101852.69
2018-06-28T00:48:37.156Z,101846.83
2018-06-28T00:51:05.852Z,101848.94
2018-06-28T00:53:34.512Z,101852.79
2018-06-28T00:56:03.264Z,101850.60
2018-06-28T00:58:31.808Z,101851.28
2018-06-28T01:01:00.401Z,101845.78
2018-06-28T01:03:29.144Z,101843.49
2018-06-28T01:05:57.764Z,101837.92
2018-06-28T01:08:26.384Z,101842.42
2018-06-28T01:10:55.119Z,101845.62
2018-06-28T01:13:23.776Z,101843.77
2018-06-28T01:15:52.384Z,101841.30
2018-06-28T01:18:21.008Z,101837.00
2018-06-28T01:20:49.590Z,101839.05
2018-06-28T01:23:18.191Z,101831.98
2018-06-28T01:25:46.848Z,101839.93
2018-06-28T01:28:15.517Z,101840.16
2018-06-28T01:30:44.192Z,101836.17
2018-06-28T01:33:12.868Z,101844.27
2018-06-28T01:35:41.398Z,101846.94
2018-06-28T01:38:09.991Z,101841.34
2018-06-28T01:40:38.696Z,101845.70
2018-06-28T01:43:28.645Z,101845.82
2018-06-28T01:45:57.298Z,101844.93
2018-06-28T01:48:26.234Z,101849.58
2018-06-28T01:50:54.781Z,101846.56
2018-06-28T01:53:23.388Z,101848.48
2018-06-28T01:55:52.021Z,101844.45
2018-06-28T01:58:21.078Z,101842.19
2018-06-28T02:00:49.725Z,101844.00
2018-06-28T02:03:18.634Z,101843.61
2018-06-28T02:05:48.336Z,101837.53
2018-06-28T02:08:16.965Z,101845.41
2018-06-28T02:10:45.609Z,101838.83
2018-06-28T02:13:14.232Z,101837.42
2018-06-28T02:15:42.917Z,101839.66
2018-06-28T02:18:11.543Z,101840.13
2018-06-28T02:20:40.538Z,101833.91
2018-06-28T02:23:09.336Z,101833.30
2018-06-28T02:25:38.364Z,101831.29
2018-06-28T02:28:07.048Z,101831.44
2018-06-28T02:30:35.774Z,101834.19
2018-06-28T02:33:04.285Z,101833.48
2018-06-28T02:35:32.966Z,101835.30
2018-06-28T02:38:01.631Z,101836.61
2018-06-28T02:40:30.253Z,101837.92
2018-06-28T02:42:58.800Z,101837.30
2018-06-28T02:45:27.372Z,101839.05
2018-06-28T02:47:55.936Z,101845.54
2018-06-28T02:50:24.624Z,101848.33
2018-06-28T02:52:53.140Z,101844.91
2018-06-28T02:55:21.803Z,101836.67
2018-06-28T02:57:50.425Z,101839.78
2018-06-28T03:00:19.037Z,101844.00
2018-06-28T03:02:47.564Z,101837.98
2018-06-28T03:05:16.252Z,101834.53
2018-06-28T03:07:44.885Z,101835.60
2018-06-28T03:10:13.428Z,101836.28
2018-06-28T03:12:42.105Z,101837.97
2018-06-28T03:15:10.671Z,101843.10
2018-06-28T03:17:39.349Z,101840.74
2018-06-28T03:20:08.131Z,101841.86
2018-06-28T03:22:36.841Z,101840.59
2018-06-28T03:25:05.641Z,101839.94
2018-06-28T03:27:34.348Z,101842.54
2018-06-28T03:30:03.035Z,101845.22
2018-06-28T03:32:31.803Z,101844.39
2018-06-28T03:35:00.428Z,101842.77
2018-06-28T03:37:29.027Z,101847.50
2018-06-28T03:39:57.691Z,101830.79
2018-06-28T03:42:26.277Z,101843.59
2018-06-28T03:44:54.871Z,101851.34
2018-06-28T03:47:23.724Z,101851.25
2018-06-28T03:49:52.325Z,101852.28
2018-06-28T03:52:20.951Z,101848.56
2018-06-28T03:54:49.600Z,101846.29
2018-06-28T03:57:18.261Z,101850.55
2018-06-28T03:59:46.833Z,101848.97
2018-06-28T04:02:15.372Z,101841.84
2018-06-28T04:04:43.972Z,101849.98
2018-06-28T04:07:12.512Z,101845.98
2018-06-28T04:09:41.110Z,101851.05
2018-06-28T04:12:09.268Z,101851.48
2018-06-28T04:14:37.851Z,101852.81
2018-06-28T04:17:06.432Z,101857.41
2018-06-28T04:19:35.142Z,101853.05
2018-06-28T04:22:03.734Z,101853.63
2018-06-28T04:24:32.740Z,101854.13
2018-06-28T04:27:01.533Z,101859.17
2018-06-28T04:29:30.244Z,101860.69
2018-06-28T04:31:58.879Z,101858.47
2018-06-28T04:34:27.477Z,101861.47
2018-06-28T04:36:56.040Z,101856.13
2018-06-28T04:39:24.645Z,101857.26
2018-06-28T04:41:53.285Z,101860.03
2018-06-28T04:44:21.868Z,101870.41
2018-06-28T04:46:50.477Z,101870.21
2018-06-28T04:49:19.160Z,101866.70
2018-06-28T04:51:47.739Z,101867.08
2018-06-28T04:54:16.356Z,101870.00
2018-06-28T04:56:44.924Z,101868.45
2018-06-28T04:59:13.542Z,101865.25
2018-06-28T05:01:42.113Z,101868.81
2018-06-28T05:04:10.717Z,101866.82
2018-06-28T05:06:39.320Z,101864.13
2018-06-28T05:09:08.748Z,101865.22
2018-06-28T05:11:37.329Z,101858.39
2018-06-28T05:14:06.408Z,101859.93
2018-06-28T05:16:35.141Z,101858.62
2018-06-28T05:19:03.913Z,101853.35
2018-06-28T05:21:32.562Z,101853.70
2018-06-28T05:24:01.443Z,101851.66
2018-06-28T05:26:30.026Z,101852.79
2018-06-28T05:28:58.616Z,101848.85
2018-06-28T05:31:27.282Z,101844.70
2018-06-28T05:33:55.896Z,101848.75
2018-06-28T05:36:24.607Z,101848.06
2018-06-28T05:38:53.411Z,101846.45
2018-06-28T05:41:22.097Z,101845.09
2018-06-28T05:43:50.668Z,101843.33
2018-06-28T05:46:19.275Z,101842.94
2018-06-28T05:48:47.857Z,101844.44
2018-06-28T05:51:16.460Z,101842.69
2018-06-28T05:53:45.312Z,101842.02
2018-06-28T05:56:13.953Z,101837.85
2018-06-28T05:58:42.637Z,101840.17
2018-06-28T06:01:11.215Z,101833.36
2018-06-28T06:03:39.783Z,101838.30
2018-06-28T06:06:08.355Z,101842.78
2018-06-28T06:08:36.980Z,101846.02
2018-06-28T06:11:05.566Z,101844.49
2018-06-28T06:13:34.152Z,101841.78
2018-06-28T06:16:02.726Z,101837.98
2018-06-28T06:18:31.318Z,101845.56
2018-06-28T06:20:59.911Z,101841.69
2018-06-28T06:23:28.511Z,101847.20
2018-06-28T06:25:57.286Z,101846.84
2018-06-28T06:28:25.980Z,101843.86
2018-06-28T06:30:54.739Z,101836.50
2018-06-28T06:33:23.312Z,101841.88
2018-06-28T06:35:51.909Z,101843.63
2018-06-28T06:38:20.536Z,101842.00
2018-06-28T06:40:49.124Z,101842.98
2018-06-28T06:43:17.748Z,101838.17
2018-06-28T06:45:46.337Z,101839.61
2018-06-28T06:48:15.687Z,101835.69
2018-06-28T06:50:44.228Z,101833.48
2018-06-28T06:53:12.877Z,101834.05
2018-06-28T06:55:41.732Z,101832.81
2018-06-28T06:58:10.373Z,101834.19
2018-06-28T07:00:39.092Z,101833.44
2018-06-28T07:03:07.777Z,101835.34
2018-06-28T07:05:36.362Z,101830.61
2018-06-28T07:08:05.292Z,101833.05
2018-06-28T07:10:33.901Z,101833.22
2018-06-28T07:13:02.537Z,101836.94
2018-06-28T07:15:31.157Z,101842.72
2018-06-28T07:17:59.849Z,101840.53
2018-06-28T07:20:28.481Z,101833.50
2018-06-28T07:22:57.214Z,101835.42
2018-06-28T07:25:25.956Z,101835.51
2018-06-28T07:27:54.555Z,101837.32
2018-06-28T07:30:23.146Z,101829.04
2018-06-28T07:32:51.692Z,101834.47
2018-06-28T07:35:20.310Z,101830.61
2018-06-28T07:37:49.075Z,101831.02
2018-06-28T07:40:17.769Z,101833.74
2018-06-28T07:42:46.548Z,101831.06
2018-06-28T07:45:15.107Z,101830.23
2018-06-28T07:47:43.721Z,101828.04
2018-06-28T07:50:12.321Z,101828.52
2018-06-28T07:52:41.018Z,101830.27
2018-06-28T07:55:09.732Z,101821.92
2018-06-28T07:57:38.404Z,101819.27
2018-06-28T08:00:07.973Z,101825.05
2018-06-28T08:02:37.112Z,101822.87
2018-06-28T08:05:05.740Z,101821.09
2018-06-28T08:07:34.338Z,101820.66
2018-06-28T08:10:02.939Z,101823.75
2018-06-28T08:12:31.514Z,101818.90
2018-06-28T08:15:00.069Z,101827.72
2018-06-28T08:17:28.744Z,101826.41
2018-06-28T08:19:57.264Z,101816.69
2018-06-28T08:22:25.897Z,101816.66
2018-06-28T08:24:54.524Z,101825.08
2018-06-28T08:27:23.249Z,101822.42
2018-06-28T08:29:51.801Z,101822.83
2018-06-28T08:32:20.479Z,101822.38
2018-06-28T08:34:49.074Z,101822.84
2018-06-28T08:37:17.801Z,101828.12
2018-06-28T08:39:46.385Z,101822.35
2018-06-28T08:42:15.190Z,101827.66
2018-06-28T08:44:43.824Z,101827.23
2018-06-28T08:47:12.436Z,101817.91
2018-06-28T08:49:41.011Z,101815.69
2018-06-28T08:52:09.608Z,101810.35
2018-06-28T08:54:38.173Z,101816.06
2018-06-28T08:57:06.755Z,101813.36
2018-06-28T08:59:35.369Z,101810.31
2018-06-28T09:02:03.934Z,101815.61
2018-06-28T09:04:32.536Z,101804.96
2018-06-28T09:07:01.176Z,101811.22
2018-06-28T09:09:29.865Z,101809.84
2018-06-28T09:11:58.388Z,101806.67
2018-06-28T09:14:27.024Z,101807.50
2018-06-28T09:16:55.587Z,101808.80
2018-06-28T09:19:24.171Z,101805.72
2018-06-28T09:21:52.736Z,101812.77
2018-06-28T09:24:21.331Z,101804.34
2018-06-28T09:26:49.908Z,101805.30
2018-06-28T09:29:18.528Z,101806.23
2018-06-28T09:31:47.145Z,101803.11
2018-06-28T09:34:15.839Z,101809.76
2018-06-28T09:36:44.439Z,101810.55
2018-06-28T09:39:13.012Z,101799.41
2018-06-28T09:41:41.624Z,101797.62
2018-06-28T09:44:10.204Z,101799.02
2018-06-28T09:46:38.846Z,101796.30
2018-06-28T09:49:07.425Z,101798.85
2018-06-28T09:51:36.045Z,101790.80
2018-06-28T09:54:04.784Z,101786.19
2018-06-28T09:56:33.456Z,101782.06
2018-06-28T09:59:02.012Z,101772.64
2018-06-28T10:01:30.681Z,101769.37
2018-06-28T10:03:59.281Z,101764.68
2018-06-28T10:06:27.919Z,101763.85
2018-06-28T10:08:56.658Z,101766.30
2018-06-28T10:11:25.297Z,101761.55
2018-06-28T10:13:53.901Z,101767.44
2018-06-28T10:16:22.590Z,101766.10
2018-06-28T10:18:51.213Z,101758.98
2018-06-28T10:21:19.796Z,101749.73
2018-06-28T10:23:48.353Z,101749.33
2018-06-28T10:26:17.076Z,101752.11
2018-06-28T10:28:45.641Z,101746.11
2018-06-28T10:31:14.328Z,101740.53
2018-06-28T10:33:43.260Z,101735.91
2018-06-28T10:36:16.329Z,101735.88
2018-06-28T10:38:45.048Z,101737.63
2018-06-28T10:41:13.595Z,101738.42
2018-06-28T10:43:42.660Z,101732.80
2018-06-28T10:46:11.247Z,101730.06
2018-06-28T10:48:39.834Z,101727.75
2018-06-28T10:51:08.420Z,101728.27
2018-06-28T10:53:37.064Z,101720.54
2018-06-28T10:56:05.985Z,101717.41
2018-06-28T10:58:34.576Z,101714.34
2018-06-28T11:01:03.239Z,101707.95
2018-06-28T11:03:31.823Z,101707.89
2018-06-28T11:06:00.701Z,101704.95
2018-06-28T11:08:29.311Z,101705.70
2018-06-28T11:10:57.850Z,101703.13
2018-06-28T11:13:26.606Z,101704.46
2018-06-28T11:15:55.172Z,101701.69
2018-06-28T11:18:23.809Z,101698.49
2018-06-28T11:20:52.345Z,101701.20
2018-06-28T11:23:20.924Z,101690.94
2018-06-28T11:25:49.528Z,101686.00
2018-06-28T11:28:18.094Z,101684.96
2018-06-28T11:30:46.685Z,101687.53
2018-06-28T11:33:15.349Z,101683.68
2018-06-28T11:35:44.042Z,101673.56
2018-06-28T11:38:12.639Z,101666.02
2018-06-28T11:40:41.236Z,101665.13
2018-06-28T11:43:09.816Z,101664.10
2018-06-28T11:45:38.424Z,101669.64
2018-06-28T11:48:07.013Z,101661.72
2018-06-28T11:50:35.732Z,101656.38
2018-06-28T11:53:04.316Z,101653.13
2018-06-28T11:55:32.951Z,101642.41
2018-06-28T11:58:01.621Z,101650.30
2018-06-28T12:00:30.220Z,101644.89
2018-06-28T12:02:58.784Z,101636.11
2018-06-28T12:05:27.482Z,101639.77
2018-06-28T12:07:56.017Z,101638.62
2018-06-28T12:10:24.634Z,101651.38
2018-06-28T12:12:53.276Z,101640.55
2018-06-28T12:15:22.058Z,101636.30
2018-06-28T12:17:50.632Z,101625.02
2018-06-28T12:20:19.228Z,101622.19
2018-06-28T12:22:47.832Z,101623.86
2018-06-28T12:25:16.411Z,101624.43
2018-06-28T12:27:44.944Z,101612.57
2018-06-28T12:30:13.674Z,101611.80
2018-06-28T12:32:42.239Z,101612.26
2018-06-28T12:35:10.776Z,101612.44
2018-06-28T12:37:39.532Z,101605.98
2018-06-28T12:40:08.220Z,101603.88
2018-06-28T12:42:36.928Z,101604.08
2018-06-28T12:45:05.506Z,101604.00
2018-06-28T12:47:50.581Z,101602.08
2018-06-28T12:50:19.289Z,101600.31
2018-06-28T12:52:50.800Z,101598.64
2018-06-28T12:55:20.219Z,101598.31
2018-06-28T12:57:49.403Z,101597.33
2018-06-28T13:00:18.469Z,101598.09
2018-06-28T13:02:47.403Z,101588.58
2018-06-28T13:05:16.687Z,101594.12
2018-06-28T13:07:45.481Z,101579.22
2018-06-28T13:10:15.486Z,101581.49
2018-06-28T13:12:44.273Z,101582.20
2018-06-28T13:15:13.920Z,101576.69
2018-06-28T13:17:42.732Z,101573.00
2018-06-28T13:20:11.873Z,101565.33
2018-06-28T13:22:41.081Z,101567.73
2018-06-28T13:25:10.894Z,101557.89
2018-06-28T13:27:39.617Z,101559.64
2018-06-28T13:30:09.630Z,101570.89
2018-06-28T13:32:38.264Z,101566.44
2018-06-28T13:35:07.172Z,101559.80
2018-06-28T13:37:35.757Z,101550.02
2018-06-28T13:40:04.617Z,101546.17
2018-06-28T13:42:33.162Z,101552.08
2018-06-28T13:45:01.829Z,101545.95
2018-06-28T13:47:30.468Z,101539.84
2018-06-28T13:49:59.133Z,101537.83
2018-06-28T13:52:27.712Z,101535.80
2018-06-28T13:54:56.316Z,101527.66
2018-06-28T13:57:24.923Z,101531.40
2018-06-28T13:59:53.637Z,101517.75
2018-06-28T14:02:22.212Z,101517.39
2018-06-28T14:04:50.868Z,101518.64
2018-06-28T14:07:19.445Z,101513.38
2018-06-28T14:09:48.066Z,101515.00
2018-06-28T14:12:16.746Z,101504.22
2018-06-28T14:14:45.350Z,101498.11
2018-06-28T14:17:13.921Z,101495.11
2018-06-28T14:19:42.529Z,101494.42
2018-06-28T14:22:11.262Z,101494.02
2018-06-28T14:24:39.836Z,101489.88
2018-06-28T14:27:09.329Z,101495.06
2018-06-28T14:29:37.871Z,101489.39
2018-06-28T14:32:06.864Z,101486.41
2018-06-28T14:34:35.482Z,101483.73
2018-06-28T14:37:04.180Z,101478.02
2018-06-28T14:39:32.843Z,101474.77
2018-06-28T14:42:01.479Z,101480.19
2018-06-28T14:44:30.051Z,101479.06
2018-06-28T14:46:58.666Z,101478.16
2018-06-28T14:49:27.269Z,101480.27
2018-06-28T14:51:56.129Z,101480.12
2018-06-28T14:54:24.819Z,101485.95
2018-06-28T14:56:53.545Z,101482.39
2018-06-28T14:59:22.116Z,101470.47
2018-06-28T15:01:50.697Z,101472.00
2018-06-28T15:04:19.360Z,101470.30
2018-06-28T15:06:47.991Z,101465.97
2018-06-28T15:09:16.546Z,101461.36
2018-06-28T15:11:45.477Z,101457.61
2018-06-28T15:14:14.307Z,101458.53
2018-06-28T15:16:42.981Z,101455.50
2018-06-28T15:19:11.596Z,101451.63
2018-06-28T15:21:40.157Z,101441.39
2018-06-28T15:24:08.846Z,101436.05
2018-06-28T15:26:37.389Z,101428.50
2018-06-28T15:29:06.112Z,101434.58
2018-06-28T15:31:34.664Z,101427.44
2018-06-28T15:34:03.475Z,101432.73
2018-06-28T15:36:32.121Z,101431.00
2018-06-28T15:39:00.769Z,101427.34
2018-06-28T15:41:29.325Z,101429.34
2018-06-28T15:43:57.979Z,101429.29
2018-06-28T15:46:26.509Z,101431.60
2018-06-28T15:48:55.093Z,101422.69
2018-06-28T15:51:23.780Z,101428.84
2018-06-28T15:53:52.417Z,101417.44
2018-06-28T15:56:21.088Z,101419.91
2018-06-28T15:58:49.675Z,101419.13
2018-06-28T16:01:18.279Z,101418.15
2018-06-28T16:03:46.992Z,101428.55
2018-06-28T16:06:15.688Z,101425.70
2018-06-28T16:08:44.238Z,101426.03
2018-06-28T16:11:12.898Z,101420.80
2018-06-28T16:13:41.459Z,101415.48
2018-06-28T16:16:10.352Z,101421.38
2018-06-28T16:18:38.963Z,101424.39
2018-06-28T16:21:07.896Z,101422.14
2018-06-28T16:23:36.521Z,101431.30
2018-06-28T16:26:05.542Z,101424.05
2018-06-28T16:28:34.113Z,101424.96
2018-06-28T16:31:02.860Z,101426.75
2018-06-28T16:33:31.450Z,101419.25
2018-06-28T16:36:00.110Z,101421.86
2018-06-28T16:38:28.756Z,101413.63
2018-06-28T16:40:57.396Z,101411.94
2018-06-28T16:43:26.054Z,101408.97
2018-06-28T16:45:54.765Z,101407.56
2018-06-28T16:48:23.554Z,101408.59
2018-06-28T16:50:52.121Z,101405.86
2018-06-28T16:53:20.753Z,101410.84
2018-06-28T16:55:49.409Z,101411.14
2018-06-28T16:58:18.090Z,101416.59
2018-06-28T17:00:46.688Z,101411.36
2018-06-28T17:03:16.770Z,101407.77
2018-06-28T17:05:45.975Z,101403.73
2018-06-28T17:08:14.576Z,101400.83
2018-06-28T17:10:43.269Z,101403.27
2018-06-28T17:13:11.981Z,101394.01
2018-06-28T17:15:40.560Z,101395.25
2018-06-28T17:18:09.356Z,101397.30
2018-06-28T17:20:37.944Z,101392.72
2018-06-28T17:23:06.624Z,101394.09
2018-06-28T17:25:35.173Z,101387.06
2018-06-28T17:28:03.842Z,101394.49
2018-06-28T17:30:32.488Z,101400.31
2018-06-28T17:33:01.159Z,101396.40
2018-06-28T17:35:29.719Z,101394.58
2018-06-28T17:37:58.368Z,101398.99
2018-06-28T17:40:26.969Z,101391.16
2018-06-28T17:42:55.724Z,101391.89
2018-06-28T17:45:24.425Z,101387.91
2018-06-28T17:47:53.041Z,101394.75
2018-06-28T17:50:21.655Z,101395.97
2018-06-28T17:52:50.219Z,101399.47
2018-06-28T17:55:18.860Z,101403.27
2018-06-28T17:57:47.472Z,101391.95
2018-06-28T18:00:16.327Z,101388.81
2018-06-28T18:02:45.128Z,101385.98
2018-06-28T18:05:13.809Z,101384.95
2018-06-28T18:07:42.520Z,101397.27
2018-06-28T18:10:11.357Z,101394.45
2018-06-28T18:12:39.982Z,101394.45
2018-06-28T18:15:08.680Z,101396.92
2018-06-28T18:17:37.288Z,101395.16
2018-06-28T18:20:05.995Z,101394.08
2018-06-28T18:22:34.599Z,101397.32
2018-06-28T18:25:03.181Z,101393.72
2018-06-28T18:27:31.779Z,101395.99
2018-06-28T18:30:00.395Z,101394.84
2018-06-28T18:32:31.466Z,101392.15
2018-06-28T18:35:00.214Z,101390.51
2018-06-28T18:37:28.872Z,101388.34
2018-06-28T18:39:57.674Z,101394.31
2018-06-28T18:42:26.275Z,101388.30
2018-06-28T18:44:54.933Z,101393.36
2018-06-28T18:47:23.541Z,101389.89
2018-06-28T18:49:52.117Z,101389.84
2018-06-28T18:52:20.739Z,101395.16
2018-06-28T18:54:49.337Z,101395.91
2018-06-28T18:57:17.956Z,101394.09
2018-06-28T18:59:46.581Z,101392.05
2018-06-28T19:02:15.307Z,101396.68
2018-06-28T19:04:43.983Z,101396.68
2018-06-28T19:07:12.724Z,101398.86
2018-06-28T19:09:46.684Z,101399.67
2018-06-28T19:12:15.350Z,101404.73
2018-06-28T19:14:49.265Z,101400.35
2018-06-28T19:17:17.968Z,101405.66
2018-06-28T19:19:46.604Z,101403.67
2018-06-28T19:22:20.591Z,101410.98
2018-06-28T19:24:49.212Z,101411.95
2018-06-28T19:27:17.880Z,101412.67
2018-06-28T19:29:51.742Z,101412.11
2018-06-28T19:32:25.766Z,101420.33
2018-06-28T19:34:54.577Z,101419.27
2018-06-28T19:37:28.364Z,101422.29
2018-06-28T19:40:02.326Z,101420.65
2018-06-28T19:42:36.120Z,101431.95
2018-06-28T19:45:04.824Z,101424.08
2018-06-28T19:47:33.525Z,101427.53
2018-06-28T19:50:07.234Z,101437.27
2018-06-28T19:52:40.990Z,101434.62
2018-06-28T19:55:09.701Z,101431.70
2018-06-28T19:57:38.357Z,101432.25
2018-06-28T20:00:06.996Z,101441.48
2018-06-28T20:02:40.929Z,101443.10
2018-06-28T20:05:09.617Z,101448.50
2018-06-28T20:07:38.249Z,101448.16
2018-06-28T20:10:07.107Z,101454.62
2018-06-28T20:12:41.185Z,101448.50
2018-06-28T20:15:15.000Z,101451.38
2018-06-28T20:18:01.592Z,101452.89
2018-06-28T20:32:25.067Z,101462.92
2018-06-28T20:34:53.736Z,101457.71
2018-06-28T20:37:22.302Z,101461.59
2018-06-28T20:39:50.879Z,101463.28
